sensor_id;sensor_type;location;lat;lon;timestamp;P1;durP1;ratioP1;P2;durP2;ratioP2
22673;SDS011;11504;43.334;21.918;2023-07-28T00:04:29;16.0;;;15.0;;
22673;SDS011;11504;43.334;21.918;2023-07-28T00:09:05;16.0;;;15.0;;
22673;SDS011;11504;43.334;21.918;2023-07-28T00:13:43;16.0;;;15.0;;
22673;SDS011;11504;43.334;21.918;2023-07-28T00:18:19;16.0;;;15.0;;
22673;SDS011;11504;43.334;21.918;2023-07-28T00:22:55;15.0;;;15.0;;
22673;SDS011;11504;43.334;21.918;2023-07-28T00:27:32;15.0;;;15.0;;
22673;SDS011;11504;43.334;21.918;2023-07-28T00:32:08;15.0;;;15.0;;
22673;SDS011;11504;43.334;21.918;2023-07-28T00:36:45;16.0;;;15.0;;
22673;SDS011;11504;43.334;21.918;2023-07-28T00:41:22;16.0;;;15.0;;
22673;SDS011;11504;43.334;21.918;2023-07-28T00:45:59;16.0;;;15.0;;
22673;SDS011;11504;43.334;21.918;2023-07-28T00:50:37;16.0;;;15.0;;
22673;SDS011;11504;43.334;21.918;2023-07-28T00:55:18;16.0;;;15.0;;
22673;SDS011;11504;43.334;21.918;2023-07-28T01:00:00;16.0;;;15.0;;
22673;SDS011;11504;43.334;21.918;2023-07-28T01:04:40;16.0;;;15.0;;
22673;SDS011;11504;43.334;21.918;2023-07-28T01:09:28;16.0;;;15.0;;
22673;SDS011;11504;43.334;21.918;2023-07-28T01:14:26;16.0;;;15.0;;
22673;SDS011;11504;43.334;21.918;2023-07-28T01:19:03;16.0;;;15.0;;
22673;SDS011;11504;43.334;21.918;2023-07-28T01:23:58;16.0;;;15.0;;
22673;SDS011;11504;43.334;21.918;2023-07-28T01:29:04;16.0;;;15.0;;
22673;SDS011;11504;43.334;21.918;2023-07-28T01:33:42;17.0;;;16.0;;
22673;SDS011;11504;43.334;21.918;2023-07-28T01:38:19;17.0;;;16.0;;
22673;SDS011;11504;43.334;21.918;2023-07-28T01:42:56;18.0;;;17.0;;
22673;SDS011;11504;43.334;21.918;2023-07-28T01:47:33;18.0;;;17.0;;
22673;SDS011;11504;43.334;21.918;2023-07-28T01:52:10;18.0;;;17.0;;
22673;SDS011;11504;43.334;21.918;2023-07-28T01:56:47;18.0;;;17.0;;
22673;SDS011;11504;43.334;21.918;2023-07-28T02:01:24;18.0;;;17.0;;
22673;SDS011;11504;43.334;21.918;2023-07-28T02:06:01;18.0;;;17.0;;
22673;SDS011;11504;43.334;21.918;2023-07-28T02:10:38;18.0;;;17.0;;
22673;SDS011;11504;43.334;21.918;2023-07-28T02:15:15;18.0;;;16.0;;
22673;SDS011;11504;43.334;21.918;2023-07-28T02:19:52;18.0;;;16.0;;
22673;SDS011;11504;43.334;21.918;2023-07-28T02:24:29;17.0;;;16.0;;
22673;SDS011;11504;43.334;21.918;2023-07-28T02:29:05;17.0;;;16.0;;
22673;SDS011;11504;43.334;21.918;2023-07-28T02:33:41;17.0;;;16.0;;
22673;SDS011;11504;43.334;21.918;2023-07-28T02:38:18;17.0;;;16.0;;
22673;SDS011;11504;43.334;21.918;2023-07-28T02:42:54;17.0;;;16.0;;
22673;SDS011;11504;43.334;21.918;2023-07-28T02:47:30;17.0;;;16.0;;
22673;SDS011;11504;43.334;21.918;2023-07-28T02:52:07;17.0;;;16.0;;
22673;SDS011;11504;43.334;21.918;2023-07-28T02:56:44;16.0;;;16.0;;
22673;SDS011;11504;43.334;21.918;2023-07-28T03:01:20;16.0;;;16.0;;
22673;SDS011;11504;43.334;21.918;2023-07-28T03:05:56;16.0;;;15.0;;
22673;SDS011;11504;43.334;21.918;2023-07-28T03:10:33;16.0;;;15.0;;
22673;SDS011;11504;43.334;21.918;2023-07-28T03:15:10;16.0;;;15.0;;
22673;SDS011;11504;43.334;21.918;2023-07-28T03:19:46;16.0;;;15.0;;
22673;SDS011;11504;43.334;21.918;2023-07-28T03:24:23;16.0;;;15.0;;
22673;SDS011;11504;43.334;21.918;2023-07-28T03:29:00;16.0;;;15.0;;
22673;SDS011;11504;43.334;21.918;2023-07-28T03:33:36;18.0;;;16.0;;
22673;SDS011;11504;43.334;21.918;2023-07-28T03:38:13;18.0;;;16.0;;
22673;SDS011;11504;43.334;21.918;2023-07-28T03:42:50;19.0;;;18.0;;
22673;SDS011;11504;43.334;21.918;2023-07-28T03:47:28;19.0;;;18.0;;
22673;SDS011;11504;43.334;21.918;2023-07-28T03:52:06;19.0;;;18.0;;
22673;SDS011;11504;43.334;21.918;2023-07-28T03:56:43;16.0;;;16.0;;
22673;SDS011;11504;43.334;21.918;2023-07-28T04:01:20;16.0;;;16.0;;
22673;SDS011;11504;43.334;21.918;2023-07-28T04:05:58;14.0;;;14.0;;
22673;SDS011;11504;43.334;21.918;2023-07-28T04:10:35;14.0;;;14.0;;
22673;SDS011;11504;43.334;21.918;2023-07-28T04:15:12;16.0;;;16.0;;
22673;SDS011;11504;43.334;21.918;2023-07-28T04:19:49;16.0;;;16.0;;
22673;SDS011;11504;43.334;21.918;2023-07-28T04:24:25;19.0;;;18.0;;
22673;SDS011;11504;43.334;21.918;2023-07-28T04:29:03;19.0;;;18.0;;
22673;SDS011;11504;43.334;21.918;2023-07-28T04:33:42;16.0;;;16.0;;
22673;SDS011;11504;43.334;21.918;2023-07-28T04:38:19;16.0;;;16.0;;
22673;SDS011;11504;43.334;21.918;2023-07-28T04:42:55;14.0;;;13.0;;
22673;SDS011;11504;43.334;21.918;2023-07-28T04:47:32;14.0;;;13.0;;
22673;SDS011;11504;43.334;21.918;2023-07-28T04:52:09;14.0;;;13.0;;
22673;SDS011;11504;43.334;21.918;2023-07-28T04:56:47;12.0;;;11.0;;
22673;SDS011;11504;43.334;21.918;2023-07-28T05:01:25;12.0;;;11.0;;
22673;SDS011;11504;43.334;21.918;2023-07-28T05:06:04;10.0;;;9.0;;
22673;SDS011;11504;43.334;21.918;2023-07-28T05:10:42;10.0;;;9.0;;
22673;SDS011;11504;43.334;21.918;2023-07-28T05:15:18;10.0;;;9.0;;
22673;SDS011;11504;43.334;21.918;2023-07-28T05:19:54;10.0;;;9.0;;
22673;SDS011;11504;43.334;21.918;2023-07-28T05:24:30;10.0;;;9.0;;
22673;SDS011;11504;43.334;21.918;2023-07-28T05:29:07;10.0;;;9.0;;
22673;SDS011;11504;43.334;21.918;2023-07-28T05:33:43;10.0;;;9.0;;
22673;SDS011;11504;43.334;21.918;2023-07-28T05:38:19;10.0;;;9.0;;
22673;SDS011;11504;43.334;21.918;2023-07-28T05:42:55;9.0;;;9.0;;
22673;SDS011;11504;43.334;21.918;2023-07-28T05:47:32;9.0;;;9.0;;
22673;SDS011;11504;43.334;21.918;2023-07-28T05:52:08;9.0;;;9.0;;
22673;SDS011;11504;43.334;21.918;2023-07-28T05:56:45;9.0;;;8.0;;
22673;SDS011;11504;43.334;21.918;2023-07-28T06:01:21;9.0;;;8.0;;
22673;SDS011;11504;43.334;21.918;2023-07-28T06:05:59;9.0;;;8.0;;
22673;SDS011;11504;43.334;21.918;2023-07-28T06:10:37;9.0;;;8.0;;
22673;SDS011;11504;43.334;21.918;2023-07-28T06:15:14;8.0;;;8.0;;
22673;SDS011;11504;43.334;21.918;2023-07-28T06:19:51;8.0;;;8.0;;
22673;SDS011;11504;43.334;21.918;2023-07-28T06:24:27;8.0;;;8.0;;
22673;SDS011;11504;43.334;21.918;2023-07-28T06:29:06;8.0;;;8.0;;
22673;SDS011;11504;43.334;21.918;2023-07-28T06:33:42;8.0;;;8.0;;
22673;SDS011;11504;43.334;21.918;2023-07-28T06:38:19;8.0;;;8.0;;
22673;SDS011;11504;43.334;21.918;2023-07-28T06:42:56;9.0;;;8.0;;
22673;SDS011;11504;43.334;21.918;2023-07-28T06:47:32;9.0;;;8.0;;
22673;SDS011;11504;43.334;21.918;2023-07-28T06:52:09;9.0;;;8.0;;
22673;SDS011;11504;43.334;21.918;2023-07-28T06:56:46;9.0;;;8.0;;
22673;SDS011;11504;43.334;21.918;2023-07-28T07:01:22;9.0;;;8.0;;
22673;SDS011;11504;43.334;21.918;2023-07-28T07:05:59;9.0;;;9.0;;
22673;SDS011;11504;43.334;21.918;2023-07-28T07:10:36;9.0;;;9.0;;
22673;SDS011;11504;43.334;21.918;2023-07-28T07:15:13;9.0;;;8.0;;
22673;SDS011;11504;43.334;21.918;2023-07-28T07:19:50;9.0;;;8.0;;
22673;SDS011;11504;43.334;21.918;2023-07-28T07:24:27;9.0;;;8.0;;
22673;SDS011;11504;43.334;21.918;2023-07-28T07:29:03;9.0;;;8.0;;
22673;SDS011;11504;43.334;21.918;2023-07-28T07:33:41;10.0;;;9.0;;
22673;SDS011;11504;43.334;21.918;2023-07-28T07:38:19;10.0;;;9.0;;
22673;SDS011;11504;43.334;21.918;2023-07-28T07:42:56;10.0;;;9.0;;
22673;SDS011;11504;43.334;21.918;2023-07-28T07:47:32;10.0;;;10.0;;
22673;SDS011;11504;43.334;21.918;2023-07-28T07:52:10;10.0;;;10.0;;
22673;SDS011;11504;43.334;21.918;2023-07-28T07:56:46;10.0;;;10.0;;
22673;SDS011;11504;43.334;21.918;2023-07-28T08:01:22;10.0;;;10.0;;
22673;SDS011;11504;43.334;21.918;2023-07-28T08:05:59;9.0;;;9.0;;
22673;SDS011;11504;43.334;21.918;2023-07-28T08:10:35;9.0;;;9.0;;
22673;SDS011;11504;43.334;21.918;2023-07-28T08:15:14;9.0;;;8.0;;
22673;SDS011;11504;43.334;21.918;2023-07-28T08:19:51;9.0;;;8.0;;
22673;SDS011;11504;43.334;21.918;2023-07-28T08:24:27;9.0;;;8.0;;
22673;SDS011;11504;43.334;21.918;2023-07-28T08:29:04;9.0;;;8.0;;
22673;SDS011;11504;43.334;21.918;2023-07-28T08:33:40;10.0;;;8.0;;
22673;SDS011;11504;43.334;21.918;2023-07-28T08:38:17;10.0;;;8.0;;
22673;SDS011;11504;43.334;21.918;2023-07-28T08:42:54;10.0;;;8.0;;
22673;SDS011;11504;43.334;21.918;2023-07-28T08:47:31;10.0;;;9.0;;
22673;SDS011;11504;43.334;21.918;2023-07-28T08:52:09;10.0;;;9.0;;
22673;SDS011;11504;43.334;21.918;2023-07-28T08:56:46;9.0;;;8.0;;
22673;SDS011;11504;43.334;21.918;2023-07-28T09:01:23;9.0;;;8.0;;
22673;SDS011;11504;43.334;21.918;2023-07-28T09:06:02;8.0;;;8.0;;
22673;SDS011;11504;43.334;21.918;2023-07-28T09:10:42;8.0;;;8.0;;
22673;SDS011;11504;43.334;21.918;2023-07-28T09:15:24;9.0;;;9.0;;
22673;SDS011;11504;43.334;21.918;2023-07-28T09:20:01;9.0;;;9.0;;
22673;SDS011;11504;43.334;21.918;2023-07-28T09:24:39;10.0;;;10.0;;
22673;SDS011;11504;43.334;21.918;2023-07-28T09:29:20;10.0;;;10.0;;
22673;SDS011;11504;43.334;21.918;2023-07-28T09:33:59;10.0;;;10.0;;
22673;SDS011;11504;43.334;21.918;2023-07-28T09:38:39;10.0;;;10.0;;
22673;SDS011;11504;43.334;21.918;2023-07-28T09:43:17;10.0;;;10.0;;
22673;SDS011;11504;43.334;21.918;2023-07-28T09:48:01;10.0;;;10.0;;
22673;SDS011;11504;43.334;21.918;2023-07-28T09:52:58;10.0;;;10.0;;
22673;SDS011;11504;43.334;21.918;2023-07-28T09:57:50;10.0;;;9.0;;
22673;SDS011;11504;43.334;21.918;2023-07-28T10:02:41;10.0;;;9.0;;
22673;SDS011;11504;43.334;21.918;2023-07-28T10:07:23;9.0;;;8.0;;
22673;SDS011;11504;43.334;21.918;2023-07-28T10:12:02;9.0;;;8.0;;
22673;SDS011;11504;43.334;21.918;2023-07-28T10:16:43;9.0;;;8.0;;
22673;SDS011;11504;43.334;21.918;2023-07-28T10:21:20;9.0;;;8.0;;
22673;SDS011;11504;43.334;21.918;2023-07-28T10:26:00;9.0;;;9.0;;
22673;SDS011;11504;43.334;21.918;2023-07-28T10:30:51;9.0;;;9.0;;
22673;SDS011;11504;43.334;21.918;2023-07-28T10:35:31;8.0;;;8.0;;
22673;SDS011;11504;43.334;21.918;2023-07-28T10:40:29;8.0;;;8.0;;
22673;SDS011;11504;43.334;21.918;2023-07-28T10:45:09;8.0;;;8.0;;
22673;SDS011;11504;43.334;21.918;2023-07-28T10:49:47;8.0;;;8.0;;
22673;SDS011;11504;43.334;21.918;2023-07-28T10:54:23;8.0;;;8.0;;
22673;SDS011;11504;43.334;21.918;2023-07-28T10:59:04;8.0;;;8.0;;
22673;SDS011;11504;43.334;21.918;2023-07-28T11:03:41;8.0;;;8.0;;
22673;SDS011;11504;43.334;21.918;2023-07-28T11:08:18;8.0;;;8.0;;
22673;SDS011;11504;43.334;21.918;2023-07-28T11:13:01;8.0;;;8.0;;
22673;SDS011;11504;43.334;21.918;2023-07-28T11:17:47;9.0;;;8.0;;
22673;SDS011;11504;43.334;21.918;2023-07-28T11:22:28;9.0;;;8.0;;
22673;SDS011;11504;43.334;21.918;2023-07-28T11:27:06;10.0;;;9.0;;
22673;SDS011;11504;43.334;21.918;2023-07-28T11:31:43;10.0;;;9.0;;
22673;SDS011;11504;43.334;21.918;2023-07-28T11:36:24;9.0;;;8.0;;
22673;SDS011;11504;43.334;21.918;2023-07-28T11:41:05;9.0;;;8.0;;
22673;SDS011;11504;43.334;21.918;2023-07-28T11:45:43;8.0;;;7.0;;
22673;SDS011;11504;43.334;21.918;2023-07-28T11:50:27;8.0;;;7.0;;
22673;SDS011;11504;43.334;21.918;2023-07-28T11:55:14;8.0;;;7.0;;
22673;SDS011;11504;43.334;21.918;2023-07-28T11:59:51;8.0;;;7.0;;
22673;SDS011;11504;43.334;21.918;2023-07-28T12:04:31;7.0;;;7.0;;
22673;SDS011;11504;43.334;21.918;2023-07-28T12:09:16;7.0;;;7.0;;
22673;SDS011;11504;43.334;21.918;2023-07-28T12:13:53;8.0;;;8.0;;
22673;SDS011;11504;43.334;21.918;2023-07-28T12:18:30;8.0;;;8.0;;
22673;SDS011;11504;43.334;21.918;2023-07-28T12:23:08;8.0;;;8.0;;
22673;SDS011;11504;43.334;21.918;2023-07-28T12:27:45;9.0;;;8.0;;
22673;SDS011;11504;43.334;21.918;2023-07-28T12:32:22;9.0;;;8.0;;
22673;SDS011;11504;43.334;21.918;2023-07-28T12:37:00;9.0;;;8.0;;
22673;SDS011;11504;43.334;21.918;2023-07-28T12:41:36;9.0;;;8.0;;
22673;SDS011;11504;43.334;21.918;2023-07-28T12:46:13;9.0;;;8.0;;
22673;SDS011;11504;43.334;21.918;2023-07-28T12:50:50;9.0;;;8.0;;
22673;SDS011;11504;43.334;21.918;2023-07-28T12:55:27;8.0;;;8.0;;
22673;SDS011;11504;43.334;21.918;2023-07-28T13:00:07;8.0;;;8.0;;
22673;SDS011;11504;43.334;21.918;2023-07-28T13:04:48;8.0;;;8.0;;
22673;SDS011;11504;43.334;21.918;2023-07-28T13:09:25;8.0;;;8.0;;
22673;SDS011;11504;43.334;21.918;2023-07-28T13:14:02;8.0;;;8.0;;
22673;SDS011;11504;43.334;21.918;2023-07-28T13:18:39;8.0;;;8.0;;
22673;SDS011;11504;43.334;21.918;2023-07-28T13:23:15;7.0;;;7.0;;
22673;SDS011;11504;43.334;21.918;2023-07-28T13:27:51;7.0;;;7.0;;
22673;SDS011;11504;43.334;21.918;2023-07-28T13:32:28;7.0;;;7.0;;
22673;SDS011;11504;43.334;21.918;2023-07-28T13:37:05;8.0;;;7.0;;
22673;SDS011;11504;43.334;21.918;2023-07-28T13:41:41;8.0;;;7.0;;
22673;SDS011;11504;43.334;21.918;2023-07-28T13:46:17;8.0;;;7.0;;
22673;SDS011;11504;43.334;21.918;2023-07-28T13:50:54;8.0;;;7.0;;
22673;SDS011;11504;43.334;21.918;2023-07-28T13:55:30;8.0;;;8.0;;
22673;SDS011;11504;43.334;21.918;2023-07-28T14:00:10;8.0;;;8.0;;
22673;SDS011;11504;43.334;21.918;2023-07-28T14:04:49;9.0;;;8.0;;
22673;SDS011;11504;43.334;21.918;2023-07-28T14:09:26;9.0;;;8.0;;
22673;SDS011;11504;43.334;21.918;2023-07-28T14:14:03;8.0;;;8.0;;
22673;SDS011;11504;43.334;21.918;2023-07-28T14:18:40;8.0;;;8.0;;
22673;SDS011;11504;43.334;21.918;2023-07-28T14:23:24;8.0;;;8.0;;
22673;SDS011;11504;43.334;21.918;2023-07-28T14:28:04;8.0;;;8.0;;
22673;SDS011;11504;43.334;21.918;2023-07-28T14:32:40;8.0;;;8.0;;
22673;SDS011;11504;43.334;21.918;2023-07-28T14:37:17;8.0;;;8.0;;
22673;SDS011;11504;43.334;21.918;2023-07-28T14:41:53;8.0;;;8.0;;
22673;SDS011;11504;43.334;21.918;2023-07-28T14:46:30;8.0;;;8.0;;
22673;SDS011;11504;43.334;21.918;2023-07-28T14:51:06;8.0;;;8.0;;
22673;SDS011;11504;43.334;21.918;2023-07-28T14:55:43;8.0;;;8.0;;
22673;SDS011;11504;43.334;21.918;2023-07-28T15:00:20;8.0;;;8.0;;
22673;SDS011;11504;43.334;21.918;2023-07-28T15:04:56;8.0;;;8.0;;
22673;SDS011;11504;43.334;21.918;2023-07-28T15:09:33;8.0;;;8.0;;
22673;SDS011;11504;43.334;21.918;2023-07-28T15:14:09;8.0;;;8.0;;
22673;SDS011;11504;43.334;21.918;2023-07-28T15:18:46;8.0;;;8.0;;
22673;SDS011;11504;43.334;21.918;2023-07-28T15:23:22;9.0;;;9.0;;
22673;SDS011;11504;43.334;21.918;2023-07-28T15:28:02;9.0;;;9.0;;
22673;SDS011;11504;43.334;21.918;2023-07-28T15:32:39;9.0;;;9.0;;
22673;SDS011;11504;43.334;21.918;2023-07-28T15:37:16;9.0;;;8.0;;
22673;SDS011;11504;43.334;21.918;2023-07-28T15:41:55;9.0;;;8.0;;
22673;SDS011;11504;43.334;21.918;2023-07-28T15:46:31;9.0;;;8.0;;
22673;SDS011;11504;43.334;21.918;2023-07-28T15:51:09;9.0;;;8.0;;
22673;SDS011;11504;43.334;21.918;2023-07-28T15:55:46;10.0;;;10.0;;
22673;SDS011;11504;43.334;21.918;2023-07-28T16:00:22;10.0;;;10.0;;
22673;SDS011;11504;43.334;21.918;2023-07-28T16:04:59;11.0;;;11.0;;
22673;SDS011;11504;43.334;21.918;2023-07-28T16:09:35;11.0;;;11.0;;
22673;SDS011;11504;43.334;21.918;2023-07-28T16:14:12;10.0;;;10.0;;
22673;SDS011;11504;43.334;21.918;2023-07-28T16:18:48;10.0;;;10.0;;
22673;SDS011;11504;43.334;21.918;2023-07-28T16:23:24;10.0;;;10.0;;
22673;SDS011;11504;43.334;21.918;2023-07-28T16:28:01;10.0;;;10.0;;
22673;SDS011;11504;43.334;21.918;2023-07-28T16:32:37;10.0;;;10.0;;
22673;SDS011;11504;43.334;21.918;2023-07-28T16:37:14;12.0;;;11.0;;
22673;SDS011;11504;43.334;21.918;2023-07-28T16:41:50;12.0;;;11.0;;
22673;SDS011;11504;43.334;21.918;2023-07-28T16:46:27;13.0;;;12.0;;
22673;SDS011;11504;43.334;21.918;2023-07-28T16:51:03;13.0;;;12.0;;
22673;SDS011;11504;43.334;21.918;2023-07-28T16:55:40;12.0;;;12.0;;
22673;SDS011;11504;43.334;21.918;2023-07-28T17:00:16;12.0;;;12.0;;
22673;SDS011;11504;43.334;21.918;2023-07-28T17:04:53;11.0;;;11.0;;
22673;SDS011;11504;43.334;21.918;2023-07-28T17:09:30;11.0;;;11.0;;
22673;SDS011;11504;43.334;21.918;2023-07-28T17:14:06;12.0;;;12.0;;
22673;SDS011;11504;43.334;21.918;2023-07-28T17:18:43;12.0;;;12.0;;
22673;SDS011;11504;43.334;21.918;2023-07-28T17:23:19;12.0;;;12.0;;
22673;SDS011;11504;43.334;21.918;2023-07-28T17:27:56;13.0;;;12.0;;
22673;SDS011;11504;43.334;21.918;2023-07-28T17:32:32;13.0;;;12.0;;
22673;SDS011;11504;43.334;21.918;2023-07-28T17:37:09;13.0;;;12.0;;
22673;SDS011;11504;43.334;21.918;2023-07-28T17:41:45;13.0;;;12.0;;
22673;SDS011;11504;43.334;21.918;2023-07-28T17:46:22;13.0;;;13.0;;
22673;SDS011;11504;43.334;21.918;2023-07-28T17:50:59;13.0;;;13.0;;
22673;SDS011;11504;43.334;21.918;2023-07-28T17:55:35;12.0;;;12.0;;
22673;SDS011;11504;43.334;21.918;2023-07-28T18:00:14;12.0;;;12.0;;
22673;SDS011;11504;43.334;21.918;2023-07-28T18:04:50;11.0;;;11.0;;
22673;SDS011;11504;43.334;21.918;2023-07-28T18:09:27;11.0;;;11.0;;
22673;SDS011;11504;43.334;21.918;2023-07-28T18:14:04;12.0;;;12.0;;
22673;SDS011;11504;43.334;21.918;2023-07-28T18:18:40;12.0;;;12.0;;
22673;SDS011;11504;43.334;21.918;2023-07-28T18:23:17;12.0;;;12.0;;
22673;SDS011;11504;43.334;21.918;2023-07-28T18:27:54;14.0;;;13.0;;
22673;SDS011;11504;43.334;21.918;2023-07-28T18:32:30;14.0;;;13.0;;
22673;SDS011;11504;43.334;21.918;2023-07-28T18:37:07;13.0;;;12.0;;
22673;SDS011;11504;43.334;21.918;2023-07-28T18:41:43;13.0;;;12.0;;
22673;SDS011;11504;43.334;21.918;2023-07-28T18:46:20;12.0;;;12.0;;
22673;SDS011;11504;43.334;21.918;2023-07-28T18:50:56;12.0;;;12.0;;
22673;SDS011;11504;43.334;21.918;2023-07-28T18:55:32;14.0;;;14.0;;
22673;SDS011;11504;43.334;21.918;2023-07-28T19:00:10;14.0;;;14.0;;
22673;SDS011;11504;43.334;21.918;2023-07-28T19:04:46;15.0;;;15.0;;
22673;SDS011;11504;43.334;21.918;2023-07-28T19:09:23;15.0;;;15.0;;
22673;SDS011;11504;43.334;21.918;2023-07-28T19:13:59;13.0;;;13.0;;
22673;SDS011;11504;43.334;21.918;2023-07-28T19:18:36;13.0;;;13.0;;
22673;SDS011;11504;43.334;21.918;2023-07-28T19:23:12;13.0;;;13.0;;
22673;SDS011;11504;43.334;21.918;2023-07-28T19:27:49;11.0;;;11.0;;
22673;SDS011;11504;43.334;21.918;2023-07-28T19:32:26;11.0;;;11.0;;
22673;SDS011;11504;43.334;21.918;2023-07-28T19:37:02;13.0;;;12.0;;
22673;SDS011;11504;43.334;21.918;2023-07-28T19:41:41;13.0;;;12.0;;
22673;SDS011;11504;43.334;21.918;2023-07-28T19:46:18;15.0;;;14.0;;
22673;SDS011;11504;43.334;21.918;2023-07-28T19:50:54;15.0;;;14.0;;
22673;SDS011;11504;43.334;21.918;2023-07-28T19:55:31;16.0;;;14.0;;
22673;SDS011;11504;43.334;21.918;2023-07-28T20:00:09;16.0;;;14.0;;
22673;SDS011;11504;43.334;21.918;2023-07-28T20:04:48;16.0;;;15.0;;
22673;SDS011;11504;43.334;21.918;2023-07-28T20:09:24;16.0;;;15.0;;
22673;SDS011;11504;43.334;21.918;2023-07-28T20:14:01;16.0;;;14.0;;
22673;SDS011;11504;43.334;21.918;2023-07-28T20:18:38;16.0;;;14.0;;
22673;SDS011;11504;43.334;21.918;2023-07-28T20:23:18;16.0;;;14.0;;
22673;SDS011;11504;43.334;21.918;2023-07-28T20:27:55;15.0;;;14.0;;
22673;SDS011;11504;43.334;21.918;2023-07-28T20:32:31;15.0;;;14.0;;
22673;SDS011;11504;43.334;21.918;2023-07-28T20:37:08;14.0;;;14.0;;
22673;SDS011;11504;43.334;21.918;2023-07-28T20:41:44;14.0;;;14.0;;
22673;SDS011;11504;43.334;21.918;2023-07-28T20:46:21;13.0;;;13.0;;
22673;SDS011;11504;43.334;21.918;2023-07-28T20:50:58;13.0;;;13.0;;
22673;SDS011;11504;43.334;21.918;2023-07-28T20:55:35;14.0;;;13.0;;
22673;SDS011;11504;43.334;21.918;2023-07-28T21:00:12;14.0;;;13.0;;
22673;SDS011;11504;43.334;21.918;2023-07-28T21:04:49;14.0;;;13.0;;
22673;SDS011;11504;43.334;21.918;2023-07-28T21:09:25;14.0;;;13.0;;
22673;SDS011;11504;43.334;21.918;2023-07-28T21:14:02;14.0;;;13.0;;
22673;SDS011;11504;43.334;21.918;2023-07-28T21:18:38;14.0;;;13.0;;
22673;SDS011;11504;43.334;21.918;2023-07-28T21:23:14;14.0;;;13.0;;
22673;SDS011;11504;43.334;21.918;2023-07-28T21:27:51;13.0;;;13.0;;
22673;SDS011;11504;43.334;21.918;2023-07-28T21:32:27;13.0;;;13.0;;
22673;SDS011;11504;43.334;21.918;2023-07-28T21:37:04;14.0;;;14.0;;
22673;SDS011;11504;43.334;21.918;2023-07-28T21:41:40;14.0;;;14.0;;
22673;SDS011;11504;43.334;21.918;2023-07-28T21:46:16;15.0;;;15.0;;
22673;SDS011;11504;43.334;21.918;2023-07-28T21:50:53;15.0;;;15.0;;
22673;SDS011;11504;43.334;21.918;2023-07-28T21:55:29;14.0;;;14.0;;
22673;SDS011;11504;43.334;21.918;2023-07-28T22:00:07;14.0;;;14.0;;
22673;SDS011;11504;43.334;21.918;2023-07-28T22:04:48;12.0;;;12.0;;
22673;SDS011;11504;43.334;21.918;2023-07-28T22:09:24;12.0;;;12.0;;
22673;SDS011;11504;43.334;21.918;2023-07-28T22:14:01;12.0;;;12.0;;
22673;SDS011;11504;43.334;21.918;2023-07-28T22:18:38;12.0;;;12.0;;
22673;SDS011;11504;43.334;21.918;2023-07-28T22:23:14;12.0;;;12.0;;
22673;SDS011;11504;43.334;21.918;2023-07-28T22:27:51;13.0;;;12.0;;
22673;SDS011;11504;43.334;21.918;2023-07-28T22:32:27;13.0;;;12.0;;
22673;SDS011;11504;43.334;21.918;2023-07-28T22:37:05;12.0;;;12.0;;
22673;SDS011;11504;43.334;21.918;2023-07-28T22:41:42;12.0;;;12.0;;
22673;SDS011;11504;43.334;21.918;2023-07-28T22:46:18;12.0;;;11.0;;
22673;SDS011;11504;43.334;21.918;2023-07-28T22:50:55;12.0;;;11.0;;
22673;SDS011;11504;43.334;21.918;2023-07-28T22:55:31;13.0;;;12.0;;
22673;SDS011;11504;43.334;21.918;2023-07-28T23:00:09;13.0;;;12.0;;
22673;SDS011;11504;43.334;21.918;2023-07-28T23:04:49;14.0;;;13.0;;
22673;SDS011;11504;43.334;21.918;2023-07-28T23:09:25;14.0;;;13.0;;
22673;SDS011;11504;43.334;21.918;2023-07-28T23:14:02;14.0;;;12.0;;
22673;SDS011;11504;43.334;21.918;2023-07-28T23:18:38;14.0;;;12.0;;
22673;SDS011;11504;43.334;21.918;2023-07-28T23:23:15;14.0;;;12.0;;
22673;SDS011;11504;43.334;21.918;2023-07-28T23:27:51;13.0;;;12.0;;
22673;SDS011;11504;43.334;21.918;2023-07-28T23:32:28;13.0;;;12.0;;
22673;SDS011;11504;43.334;21.918;2023-07-28T23:37:05;13.0;;;12.0;;
22673;SDS011;11504;43.334;21.918;2023-07-28T23:41:42;13.0;;;12.0;;
22673;SDS011;11504;43.334;21.918;2023-07-28T23:46:19;13.0;;;12.0;;
22673;SDS011;11504;43.334;21.918;2023-07-28T23:50:57;13.0;;;12.0;;
22673;SDS011;11504;43.334;21.918;2023-07-28T23:55:34;14.0;;;12.0;;
